Time;durP1;ratioP1;P1;durP2;ratioP2;P2;SDS_P1;SDS_P2;PMS_P1;PMS_P2;Temp;Humidity;BMP_temperature;BMP_pressure;BME280_temperature;BME280_humidity;BME280_pressure;Samples;Min_cycle;Max_cycle;Signal;HPM_P1;HPM_P2
2021/05/21 00:00:02;;;;;;;3.57;2.90;;;11.30;99.90;;;;;;5073361;28;20889;-63
2021/05/21 00:02:28;;;;;;;3.30;2.90;;;11.30;99.90;;;;;;5073391;28;20461;-63
2021/05/21 00:04:54;;;;;;;3.90;3.03;;;11.30;99.90;;;;;;5073032;28;21024;-62
2021/05/21 00:07:21;;;;;;;3.80;2.67;;;11.20;99.90;;;;;;5072705;28;20447;-63
2021/05/21 00:09:47;;;;;;;3.30;3.00;;;11.20;99.90;;;;;;5072611;28;20538;-62
2021/05/21 00:12:13;;;;;;;4.03;3.53;;;11.20;99.90;;;;;;5072690;28;20447;-63
2021/05/21 00:14:40;;;;;;;4.50;3.33;;;11.20;99.90;;;;;;5072839;28;20447;-63
2021/05/21 00:17:07;;;;;;;4.63;2.90;;;11.30;99.90;;;;;;5072595;28;20451;-63
2021/05/21 00:19:33;;;;;;;4.07;3.63;;;11.20;99.90;;;;;;5072468;28;20463;-63
2021/05/21 00:21:59;;;;;;;4.80;3.10;;;11.20;99.90;;;;;;5072548;28;20978;-63
2021/05/21 00:24:26;;;;;;;4.37;3.33;;;11.20;99.90;;;;;;5072324;28;20557;-63
2021/05/21 00:26:52;;;;;;;4.30;3.27;;;11.20;99.90;;;;;;5072459;28;20454;-62
2021/05/21 00:29:18;;;;;;;4.13;3.40;;;11.20;99.90;;;;;;5072508;28;20467;-63
2021/05/21 00:31:45;;;;;;;3.60;2.80;;;11.10;99.90;;;;;;5072349;28;20948;-63
2021/05/21 00:34:12;;;;;;;5.60;3.33;;;11.10;99.90;;;;;;5072394;28;21246;-63
2021/05/21 00:36:39;;;;;;;4.40;3.30;;;11.20;99.90;;;;;;5072152;28;20449;-63
2021/05/21 00:39:06;;;;;;;4.87;3.20;;;11.20;99.90;;;;;;5071973;28;20523;-62
2021/05/21 00:41:33;;;;;;;3.60;3.30;;;11.20;99.90;;;;;;5071772;28;20516;-62
2021/05/21 00:43:59;;;;;;;4.67;3.13;;;11.20;99.90;;;;;;5072218;28;20482;-63
2021/05/21 00:46:26;;;;;;;6.10;3.50;;;11.10;99.90;;;;;;5072058;28;20477;-63
2021/05/21 00:48:52;;;;;;;3.53;3.23;;;11.10;99.90;;;;;;5071868;28;20546;-63
2021/05/21 00:51:20;;;;;;;4.40;3.13;;;11.10;99.90;;;;;;5072027;28;20897;-63
2021/05/21 00:53:47;;;;;;;3.60;2.90;;;11.10;99.90;;;;;;5071998;28;20818;-63
2021/05/21 00:56:13;;;;;;;4.13;3.13;;;11.00;99.90;;;;;;5071828;28;20874;-63
2021/05/21 00:58:40;;;;;;;6.37;3.53;;;11.00;99.90;;;;;;5072065;28;20463;-63
2021/05/21 01:01:06;;;;;;;4.47;3.70;;;11.00;99.90;;;;;;5071930;28;20461;-63
2021/05/21 01:03:37;;;;;;;4.67;3.40;;;11.00;99.90;;;;;;5072239;28;20593;-65
2021/05/21 01:06:04;;;;;;;3.40;3.10;;;11.00;99.90;;;;;;5071193;28;20443;-63
2021/05/21 01:08:32;;;;;;;4.80;3.40;;;11.00;99.90;;;;;;5071354;28;20467;-63
2021/05/21 01:10:58;;;;;;;7.73;3.80;;;11.00;99.90;;;;;;5071821;28;20443;-63
2021/05/21 01:13:24;;;;;;;3.90;3.10;;;10.90;99.90;;;;;;5071595;28;20816;-63
2021/05/21 01:15:51;;;;;;;4.53;3.40;;;10.90;99.90;;;;;;5071983;28;20443;-63
2021/05/21 01:18:17;;;;;;;3.87;3.20;;;10.90;99.90;;;;;;5071067;28;20463;-63
2021/05/21 01:20:44;;;;;;;6.60;3.67;;;10.90;99.90;;;;;;5071520;28;20500;-63
2021/05/21 01:23:11;;;;;;;4.27;3.50;;;10.90;99.90;;;;;;5071674;28;20577;-63
2021/05/21 01:25:38;;;;;;;5.33;3.77;;;10.90;99.90;;;;;;5071527;28;20446;-63
2021/05/21 01:28:05;;;;;;;5.67;3.70;;;10.90;99.90;;;;;;5071263;28;20473;-63
2021/05/21 01:30:32;;;;;;;4.70;3.13;;;10.80;99.90;;;;;;5071680;28;20443;-63
2021/05/21 01:33:06;;;;;;;4.53;3.60;;;10.80;99.90;;;;;;5071152;28;20454;-63
2021/05/21 01:35:32;;;;;;;4.00;3.30;;;10.70;99.90;;;;;;5071186;28;20457;-63
2021/05/21 01:38:00;;;;;;;4.67;3.50;;;10.60;99.90;;;;;;5070706;28;20497;-63
2021/05/21 01:40:27;;;;;;;4.73;3.67;;;10.60;99.90;;;;;;5072647;28;20443;-63
2021/05/21 01:42:55;;;;;;;7.33;3.47;;;10.60;99.90;;;;;;5072149;28;20471;-62
2021/05/21 01:45:22;;;;;;;4.53;3.27;;;10.60;99.90;;;;;;5071860;28;20447;-62
2021/05/21 01:47:49;;;;;;;6.77;3.47;;;10.60;99.90;;;;;;5070967;28;20471;-63
2021/05/21 01:50:16;;;;;;;3.80;2.90;;;10.50;99.90;;;;;;5070455;28;20515;-63
2021/05/21 01:52:44;;;;;;;4.50;3.57;;;10.60;99.90;;;;;;5070725;28;20443;-63
2021/05/21 01:55:12;;;;;;;5.23;3.23;;;10.50;99.90;;;;;;5070190;28;20941;-63
2021/05/21 01:57:39;;;;;;;6.23;2.90;;;10.60;99.90;;;;;;5070134;28;20508;-62
2021/05/21 02:00:07;;;;;;;3.53;2.97;;;10.60;99.90;;;;;;5070313;28;20526;-63
2021/05/21 02:02:34;;;;;;;4.67;2.87;;;10.60;99.90;;;;;;5070327;28;21117;-63
2021/05/21 02:05:00;;;;;;;4.23;2.77;;;10.60;99.90;;;;;;5070538;28;20493;-63
2021/05/21 02:07:27;;;;;;;4.27;2.80;;;10.80;99.90;;;;;;5070157;28;20466;-63
2021/05/21 02:09:55;;;;;;;9.30;2.40;;;10.90;99.90;;;;;;5070301;28;20937;-63
2021/05/21 02:12:23;;;;;;;3.50;2.37;;;11.00;99.90;;;;;;5070344;28;20458;-63
2021/05/21 02:14:49;;;;;;;3.13;2.40;;;11.00;99.90;;;;;;5070396;28;20458;-63
2021/05/21 02:17:15;;;;;;;3.60;2.17;;;11.10;99.90;;;;;;5069240;28;20529;-62
2021/05/21 02:19:42;;;;;;;2.63;2.07;;;11.20;99.90;;;;;;5070319;28;20530;-63
2021/05/21 02:22:09;;;;;;;3.13;2.17;;;11.30;99.90;;;;;;5070041;28;20479;-62
2021/05/21 02:24:36;;;;;;;3.43;2.13;;;11.30;99.90;;;;;;5070308;28;20494;-62
2021/05/21 02:27:02;;;;;;;4.93;2.13;;;11.20;99.90;;;;;;5070100;28;20881;-62
2021/05/21 02:29:29;;;;;;;2.83;2.00;;;11.20;99.90;;;;;;5070225;28;20553;-62
2021/05/21 02:31:56;;;;;;;2.73;1.83;;;11.20;99.90;;;;;;5069819;28;20466;-63
2021/05/21 02:34:22;;;;;;;3.00;2.30;;;11.20;99.90;;;;;;5069898;28;20972;-63
2021/05/21 02:36:48;;;;;;;2.90;1.80;;;11.20;99.90;;;;;;5069657;28;20828;-62
2021/05/21 02:39:15;;;;;;;6.30;1.97;;;11.20;99.90;;;;;;5069733;28;20565;-62
2021/05/21 02:41:41;;;;;;;3.13;1.90;;;11.20;99.90;;;;;;5069705;28;20453;-62
2021/05/21 02:44:08;;;;;;;2.83;1.60;;;11.20;99.90;;;;;;5069691;28;20470;-62
2021/05/21 02:46:35;;;;;;;2.20;2.00;;;11.20;99.90;;;;;;5069424;28;20447;-62
2021/05/21 02:49:01;;;;;;;2.00;1.40;;;11.30;99.90;;;;;;5069704;28;20462;-62
2021/05/21 02:51:27;;;;;;;2.27;1.87;;;11.30;99.90;;;;;;5069795;28;20469;-62
2021/05/21 02:53:54;;;;;;;2.23;1.70;;;11.30;99.90;;;;;;5070214;28;20538;-63
2021/05/21 02:56:20;;;;;;;2.90;1.77;;;11.30;99.90;;;;;;5069850;28;20457;-62
2021/05/21 02:58:46;;;;;;;2.87;1.60;;;11.30;99.90;;;;;;5069552;28;20495;-63
2021/05/21 03:01:13;;;;;;;3.20;2.00;;;11.30;99.90;;;;;;5070109;28;20447;-62
2021/05/21 03:03:40;;;;;;;2.30;1.43;;;11.30;99.90;;;;;;5069803;28;20894;-62
2021/05/21 03:06:06;;;;;;;2.07;1.30;;;11.40;99.90;;;;;;5069972;28;20884;-62
2021/05/21 03:08:32;;;;;;;2.23;1.20;;;11.40;99.90;;;;;;5069521;28;20478;-62
2021/05/21 03:10:59;;;;;;;2.23;1.47;;;11.50;99.90;;;;;;5069708;28;21106;-62
2021/05/21 03:13:25;;;;;;;2.10;1.30;;;11.50;99.90;;;;;;5069838;28;20912;-62
2021/05/21 03:15:52;;;;;;;2.67;1.60;;;11.50;99.90;;;;;;5070308;28;20447;-62
2021/05/21 03:18:22;;;;;;;3.90;1.50;;;11.50;99.90;;;;;;5069962;28;20559;-62
2021/05/21 03:20:50;;;;;;;2.20;1.40;;;11.60;99.90;;;;;;5070043;28;20447;-62
2021/05/21 03:23:17;;;;;;;2.47;1.53;;;11.60;99.90;;;;;;5070050;28;20477;-62
2021/05/21 03:25:44;;;;;;;2.87;1.50;;;11.60;99.90;;;;;;5069981;28;20439;-63
2021/05/21 03:28:11;;;;;;;2.10;1.40;;;11.60;99.90;;;;;;5069319;28;20462;-63
2021/05/21 03:30:38;;;;;;;2.07;1.50;;;11.60;99.90;;;;;;5073338;28;20538;-63
2021/05/21 03:33:05;;;;;;;3.20;1.40;;;11.70;99.90;;;;;;5072759;28;20466;-64
2021/05/21 03:35:32;;;;;;;2.00;1.40;;;11.70;99.90;;;;;;5073361;28;20992;-64
2021/05/21 03:37:59;;;;;;;2.23;1.40;;;11.80;99.90;;;;;;5073004;28;20459;-64
2021/05/21 03:40:26;;;;;;;2.00;1.17;;;11.80;99.90;;;;;;5073402;28;20447;-63
2021/05/21 03:42:52;;;;;;;3.13;1.40;;;11.70;99.90;;;;;;5073043;28;20510;-64
2021/05/21 03:45:18;;;;;;;2.57;1.77;;;11.70;99.90;;;;;;5072838;28;20531;-63
2021/05/21 03:47:46;;;;;;;7.00;1.40;;;11.60;99.90;;;;;;5072572;28;20503;-63
2021/05/21 03:50:13;;;;;;;2.13;1.20;;;11.60;99.90;;;;;;5072981;28;20450;-63
2021/05/21 03:52:39;;;;;;;3.70;1.73;;;11.50;99.90;;;;;;5073260;28;20477;-61
2021/05/21 03:55:10;;;;;;;2.57;1.70;;;11.40;99.90;;;;;;5073167;28;20521;-61
2021/05/21 03:57:36;;;;;;;2.10;1.30;;;11.40;99.90;;;;;;5072940;28;20451;-62
2021/05/21 04:00:04;;;;;;;2.87;1.67;;;11.40;99.90;;;;;;5072329;28;20936;-62
2021/05/21 04:02:30;;;;;;;3.03;1.60;;;11.30;99.90;;;;;;5072890;28;20451;-65
2021/05/21 04:04:57;;;;;;;3.87;1.50;;;11.20;99.90;;;;;;5072485;28;21042;-62
2021/05/21 04:07:23;;;;;;;2.77;1.80;;;11.20;99.90;;;;;;5072671;28;20451;-61
2021/05/21 04:09:49;;;;;;;2.50;1.43;;;11.20;99.90;;;;;;5072504;28;20546;-62
2021/05/21 04:12:16;;;;;;;2.00;1.47;;;11.30;99.90;;;;;;5072672;28;20455;-62
2021/05/21 04:14:43;;;;;;;3.20;1.67;;;11.30;99.90;;;;;;5072435;28;20503;-62
2021/05/21 04:17:09;;;;;;;4.07;1.70;;;11.30;99.90;;;;;;5072035;28;20533;-62
2021/05/21 04:19:36;;;;;;;3.67;1.70;;;11.40;99.90;;;;;;5072652;28;20884;-63
2021/05/21 04:22:02;;;;;;;2.53;1.50;;;11.50;99.90;;;;;;5072592;28;20443;-63
2021/05/21 04:24:28;;;;;;;2.23;1.40;;;11.60;99.90;;;;;;5072498;28;21102;-63
2021/05/21 04:26:55;;;;;;;2.17;1.37;;;11.60;99.90;;;;;;5072159;28;20443;-63
2021/05/21 04:29:22;;;;;;;3.40;1.20;;;11.60;99.90;;;;;;5072160;28;20506;-63
2021/05/21 04:31:48;;;;;;;2.53;1.30;;;11.70;99.90;;;;;;5072365;28;20476;-63
2021/05/21 04:34:15;;;;;;;2.23;1.53;;;11.70;99.90;;;;;;5072393;28;20534;-63
2021/05/21 04:36:41;;;;;;;3.50;1.30;;;11.70;99.90;;;;;;5071786;28;20525;-63
2021/05/21 04:39:07;;;;;;;3.53;1.60;;;11.80;99.90;;;;;;5071913;28;20463;-62
2021/05/21 04:41:33;;;;;;;3.27;1.23;;;11.90;99.90;;;;;;5071069;28;20447;-61
2021/05/21 04:44:00;;;;;;;2.07;1.37;;;12.10;99.90;;;;;;5071790;28;20483;-61
2021/05/21 04:46:27;;;;;;;2.40;1.30;;;12.20;99.90;;;;;;5072303;28;20583;-61
2021/05/21 04:48:53;;;;;;;2.40;1.27;;;12.30;99.90;;;;;;5071649;28;20597;-61
2021/05/21 04:51:20;;;;;;;2.40;1.13;;;12.30;99.90;;;;;;5072193;28;20443;-60
2021/05/21 04:53:46;;;;;;;2.50;1.30;;;12.40;99.90;;;;;;5071756;28;20967;-62
2021/05/21 04:56:13;;;;;;;5.57;1.67;;;12.50;99.90;;;;;;5071959;28;20496;-62
2021/05/21 04:58:39;;;;;;;3.30;1.40;;;12.60;99.90;;;;;;5071265;28;21314;-61
2021/05/21 05:01:06;;;;;;;5.40;2.30;;;12.60;99.90;;;;;;5072348;28;20530;-68
2021/05/21 05:03:33;;;;;;;2.73;1.70;;;12.60;99.90;;;;;;5072026;28;21327;-62
2021/05/21 05:05:59;;;;;;;3.23;1.93;;;12.60;99.90;;;;;;5071921;28;21238;-62
2021/05/21 05:08:27;;;;;;;2.33;1.90;;;12.70;99.90;;;;;;5071478;28;20546;-62
2021/05/21 05:10:54;;;;;;;3.33;2.03;;;12.70;99.90;;;;;;5072585;28;20485;-62
2021/05/21 05:13:20;;;;;;;5.43;2.10;;;12.70;99.90;;;;;;5064669;28;20454;-62
2021/05/21 05:15:47;;;;;;;2.90;2.00;;;12.70;99.90;;;;;;5050118;28;20539;-61
2021/05/21 05:18:14;;;;;;;2.63;1.80;;;12.70;99.90;;;;;;5046828;28;20483;-62
2021/05/21 05:20:42;;;;;;;3.83;2.20;;;12.80;99.90;;;;;;5046889;28;20487;-64
2021/05/21 05:23:10;;;;;;;2.67;1.73;;;12.90;99.90;;;;;;5049003;28;20456;-64
2021/05/21 05:25:39;;;;;;;4.57;2.40;;;13.00;99.90;;;;;;5048697;28;20826;-64
2021/05/21 05:28:06;;;;;;;4.50;2.43;;;13.10;99.90;;;;;;5048063;28;20586;-63
2021/05/21 05:30:32;;;;;;;4.40;2.47;;;13.20;99.90;;;;;;5047076;28;20462;-64
2021/05/21 05:32:59;;;;;;;4.07;2.70;;;13.30;99.90;;;;;;5048643;28;20462;-64
2021/05/21 05:35:25;;;;;;;3.50;2.77;;;13.30;99.90;;;;;;5048531;28;20547;-63
2021/05/21 05:37:52;;;;;;;3.27;2.50;;;13.30;99.90;;;;;;5048089;28;20533;-65
2021/05/21 05:40:19;;;;;;;3.23;2.30;;;13.30;99.90;;;;;;5048617;28;20531;-64
2021/05/21 05:42:45;;;;;;;3.43;2.43;;;13.30;99.90;;;;;;5048630;28;20477;-63
2021/05/21 05:45:13;;;;;;;4.73;2.87;;;13.30;99.90;;;;;;5048308;28;20479;-63
2021/05/21 05:47:39;;;;;;;7.63;2.77;;;13.40;99.90;;;;;;5054153;28;20447;-62
2021/05/21 05:50:06;;;;;;;9.03;2.43;;;13.30;99.90;;;;;;5056354;28;20886;-63
2021/05/21 05:52:33;;;;;;;6.07;2.90;;;13.40;99.90;;;;;;5046566;28;20444;-64
2021/05/21 05:55:00;;;;;;;5.40;3.13;;;13.40;99.90;;;;;;5047270;28;20523;-62
2021/05/21 05:57:29;;;;;;;5.20;2.10;;;13.50;99.90;;;;;;5046191;28;20462;-64
2021/05/21 05:59:56;;;;;;;4.23;2.30;;;13.60;99.90;;;;;;5046444;28;20547;-66
2021/05/21 06:02:22;;;;;;;5.93;3.20;;;13.70;99.90;;;;;;5046707;28;20466;-64
2021/05/21 06:04:48;;;;;;;6.50;3.30;;;13.80;99.90;;;;;;5046409;28;20915;-64
2021/05/21 06:07:15;;;;;;;10.47;3.00;;;13.90;99.90;;;;;;5046592;28;20535;-65
2021/05/21 06:09:41;;;;;;;5.47;2.63;;;14.00;99.90;;;;;;5046139;28;20529;-64
2021/05/21 06:12:10;;;;;;;4.03;2.13;;;14.10;99.90;;;;;;5057625;28;20478;-63
2021/05/21 06:14:36;;;;;;;3.40;2.27;;;14.30;99.90;;;;;;5057368;28;20858;-62
2021/05/21 06:17:03;;;;;;;5.30;2.30;;;14.40;99.90;;;;;;5064968;28;20455;-63
2021/05/21 06:19:29;;;;;;;4.40;2.37;;;14.60;99.90;;;;;;5065558;28;20892;-64
2021/05/21 06:21:56;;;;;;;3.07;1.83;;;14.70;99.90;;;;;;5064975;28;20944;-62
2021/05/21 06:24:23;;;;;;;3.10;2.13;;;14.90;99.90;;;;;;5064800;28;20535;-64
2021/05/21 06:29:31;;;;;;;3.90;1.80;;;15.10;99.90;;;;;;5064500;28;20487;-63
2021/05/21 06:31:57;;;;;;;3.10;1.50;;;15.20;99.90;;;;;;5065094;28;20549;-64
2021/05/21 06:34:24;;;;;;;4.80;2.30;;;15.30;99.90;;;;;;5064965;28;20500;-64
2021/05/21 06:36:50;;;;;;;3.20;2.40;;;15.40;99.90;;;;;;5064662;28;20868;-62
2021/05/21 06:39:16;;;;;;;6.60;2.20;;;15.40;99.90;;;;;;5064926;28;20458;-62
2021/05/21 06:41:43;;;;;;;5.10;1.93;;;15.50;99.90;;;;;;5059211;28;20474;-62
2021/05/21 06:44:09;;;;;;;3.33;1.90;;;15.50;99.90;;;;;;5054043;28;20475;-62
2021/05/21 06:46:36;;;;;;;3.13;2.40;;;15.50;99.90;;;;;;5045854;28;20446;-62
2021/05/21 06:49:05;;;;;;;3.67;1.93;;;15.40;99.90;;;;;;5045681;28;20582;-63
2021/05/21 06:51:31;;;;;;;4.30;1.93;;;15.40;99.90;;;;;;5054279;28;20814;-62
2021/05/21 06:53:58;;;;;;;2.87;1.90;;;15.40;99.90;;;;;;5054859;28;20826;-62
2021/05/21 06:56:24;;;;;;;2.40;1.47;;;15.40;99.90;;;;;;5044278;28;20530;-63
2021/05/21 06:58:50;;;;;;;3.33;1.50;;;15.50;99.90;;;;;;5044341;28;20547;-62
2021/05/21 07:01:18;;;;;;;3.30;1.47;;;15.60;99.90;;;;;;5045556;28;20478;-62
2021/05/21 07:03:45;;;;;;;2.60;1.40;;;15.70;99.90;;;;;;5058888;28;20471;-62
2021/05/21 07:06:11;;;;;;;5.20;1.60;;;15.80;99.90;;;;;;5050814;28;20524;-62
2021/05/21 07:08:38;;;;;;;2.20;1.17;;;15.80;99.90;;;;;;5047547;28;20467;-61
2021/05/21 07:11:04;;;;;;;4.60;1.13;;;15.80;99.90;;;;;;5048847;28;20443;-62
2021/05/21 07:13:31;;;;;;;3.30;1.37;;;15.90;99.90;;;;;;5048615;28;20440;-62
2021/05/21 07:15:57;;;;;;;3.50;1.30;;;15.90;99.90;;;;;;5048415;28;20543;-61
2021/05/21 07:18:25;;;;;;;2.57;1.27;;;16.00;99.90;;;;;;5047883;28;21197;-62
2021/05/21 07:20:53;;;;;;;2.93;1.20;;;16.10;99.90;;;;;;5047551;28;20517;-62
2021/05/21 07:23:19;;;;;;;4.90;1.50;;;16.00;99.90;;;;;;5047858;28;20931;-62
2021/05/21 07:25:46;;;;;;;2.23;1.20;;;16.10;99.90;;;;;;5047981;28;20444;-62
2021/05/21 07:28:12;;;;;;;2.77;1.30;;;16.10;99.90;;;;;;5047770;28;20548;-62
2021/05/21 07:30:39;;;;;;;3.50;1.30;;;16.20;99.90;;;;;;5048551;28;21008;-62
2021/05/21 07:33:05;;;;;;;2.53;1.03;;;16.30;99.90;;;;;;5047965;28;20543;-62
2021/05/21 07:35:32;;;;;;;2.93;1.20;;;16.30;99.90;;;;;;5048124;28;20450;-62
2021/05/21 07:37:59;;;;;;;3.00;1.40;;;16.30;99.90;;;;;;5048002;28;20916;-60
2021/05/21 07:40:27;;;;;;;3.07;1.10;;;16.30;99.90;;;;;;5048397;28;20455;-61
2021/05/21 07:42:53;;;;;;;2.40;1.10;;;16.20;99.90;;;;;;5048129;28;20447;-62
2021/05/21 07:45:20;;;;;;;2.20;1.40;;;16.10;99.90;;;;;;5047678;28;20487;-62
2021/05/21 07:47:47;;;;;;;4.07;1.23;;;16.00;99.90;;;;;;5048343;28;20821;-63
2021/05/21 07:50:14;;;;;;;2.60;1.47;;;15.90;99.90;;;;;;5047673;28;20451;-62
2021/05/21 07:52:41;;;;;;;3.90;1.40;;;15.90;99.90;;;;;;5047663;28;20477;-62
2021/05/21 07:55:10;;;;;;;4.20;2.00;;;15.80;99.90;;;;;;5048395;28;21145;-62
2021/05/21 07:57:36;;;;;;;3.40;1.57;;;15.80;99.90;;;;;;5046971;28;20960;-64
2021/05/21 08:00:04;;;;;;;6.37;1.80;;;15.80;99.90;;;;;;5049870;28;20443;-63
2021/05/21 08:02:30;;;;;;;4.40;2.00;;;15.70;99.90;;;;;;5055590;28;20497;-63
2021/05/21 08:04:57;;;;;;;4.13;1.30;;;15.70;99.90;;;;;;5048724;28;20316;-63
2021/05/21 08:07:23;;;;;;;4.63;1.70;;;15.70;99.90;;;;;;5052788;28;20448;-63
2021/05/21 08:09:51;;;;;;;4.43;2.00;;;15.70;99.90;;;;;;5056601;28;20546;-63
2021/05/21 08:12:18;;;;;;;3.40;1.90;;;15.70;99.90;;;;;;5055076;28;20439;-63
2021/05/21 08:14:47;;;;;;;2.87;1.10;;;15.70;99.90;;;;;;5055035;28;20502;-63
2021/05/21 08:17:13;;;;;;;3.03;1.50;;;15.80;99.90;;;;;;5047110;28;20880;-62
2021/05/21 08:19:40;;;;;;;2.20;1.27;;;15.80;99.90;;;;;;5051402;28;20474;-62
2021/05/21 08:22:06;;;;;;;4.67;1.47;;;15.80;99.90;;;;;;5048120;28;20448;-64
2021/05/21 08:24:33;;;;;;;2.83;1.37;;;15.80;99.90;;;;;;5047424;28;20487;-65
2021/05/21 08:26:59;;;;;;;2.80;1.20;;;15.80;99.90;;;;;;5047553;28;20885;-64
2021/05/21 08:29:26;;;;;;;2.63;1.53;;;15.90;99.90;;;;;;5047213;28;20512;-63
2021/05/21 08:31:53;;;;;;;3.70;1.30;;;15.90;99.90;;;;;;5047339;28;20555;-64
2021/05/21 08:34:19;;;;;;;3.60;1.63;;;15.90;99.90;;;;;;5049223;28;21133;-63
2021/05/21 08:36:46;;;;;;;3.27;2.10;;;15.90;99.90;;;;;;5061797;28;20542;-64
2021/05/21 08:39:13;;;;;;;2.90;1.90;;;15.90;99.90;;;;;;5059763;28;20471;-64
2021/05/21 08:41:44;;;;;;;3.50;1.60;;;15.90;99.90;;;;;;5061047;28;20456;-64
2021/05/21 08:44:11;;;;;;;3.93;2.10;;;15.90;99.90;;;;;;5053920;28;20479;-63
2021/05/21 08:46:39;;;;;;;4.37;1.60;;;16.00;99.90;;;;;;5049712;28;20448;-63
2021/05/21 08:49:05;;;;;;;2.90;1.60;;;16.00;99.90;;;;;;5048687;28;20855;-64
2021/05/21 08:51:32;;;;;;;6.10;2.83;;;16.10;99.90;;;;;;5048908;28;20554;-63
2021/05/21 08:53:58;;;;;;;8.43;1.97;;;16.20;99.90;;;;;;5048905;28;20475;-64
2021/05/21 08:56:25;;;;;;;3.90;1.50;;;16.20;99.90;;;;;;5049062;28;20515;-64
2021/05/21 08:58:52;;;;;;;4.57;1.60;;;16.20;99.90;;;;;;5048718;28;20555;-63
2021/05/21 09:01:18;;;;;;;4.40;2.47;;;16.00;99.90;;;;;;5048471;28;20941;-63
2021/05/21 09:03:48;;;;;;;4.93;1.67;;;15.90;99.90;;;;;;5052891;28;20544;-62
2021/05/21 09:06:18;;;;;;;3.67;1.57;;;16.00;99.90;;;;;;5067282;28;21130;-63
2021/05/21 09:08:47;;;;;;;4.73;2.70;;;16.00;99.90;;;;;;5056899;28;20471;-63
2021/05/21 09:11:28;;;;;;;5.20;2.33;;;16.10;99.90;;;;;;5066410;28;20478;-64
2021/05/21 09:14:04;;;;;;;3.67;2.93;;;16.00;99.90;;;;;;5056706;28;20831;-63
2021/05/21 09:16:32;;;;;;;5.37;2.93;;;16.10;99.90;;;;;;5063712;28;20452;-62
2021/05/21 09:19:07;;;;;;;3.17;1.90;;;16.00;99.90;;;;;;5058204;28;20814;-62
2021/05/21 09:22:02;;;;;;;5.70;1.60;;;16.00;99.90;;;;;;5047631;28;20872;-62
2021/05/21 09:24:32;;;;;;;7.93;2.23;;;16.00;99.90;;;;;;5012977;28;20484;-62
2021/05/21 09:27:00;;;;;;;3.83;1.20;;;16.00;99.90;;;;;;5047090;28;20603;-61
2021/05/21 09:29:39;;;;;;;2.17;1.00;;;15.80;99.90;;;;;;5047808;28;20492;-62
2021/05/21 09:32:19;;;;;;;2.60;1.10;;;15.90;99.90;;;;;;5046939;28;20810;-62
2021/05/21 09:34:57;;;;;;;3.57;1.40;;;16.00;99.90;;;;;;5065258;28;20458;-62
2021/05/21 09:37:24;;;;;;;2.80;1.23;;;16.10;99.90;;;;;;5060700;28;20475;-62
2021/05/21 09:40:01;;;;;;;2.83;1.10;;;16.20;99.90;;;;;;5060088;28;20448;-62
2021/05/21 09:42:28;;;;;;;3.50;1.00;;;16.30;99.90;;;;;;5063599;28;20438;-63
2021/05/21 09:45:10;;;;;;;3.47;1.20;;;16.40;99.90;;;;;;5066098;28;21047;-63
2021/05/21 09:47:48;;;;;;;3.20;1.00;;;16.50;99.90;;;;;;5063234;28;20498;-63
2021/05/21 09:50:16;;;;;;;3.47;1.47;;;16.50;99.50;;;;;;5053654;28;20605;-63
2021/05/21 09:52:44;;;;;;;2.17;1.27;;;16.50;99.80;;;;;;5048968;28;20529;-62
2021/05/21 09:55:11;;;;;;;3.13;0.97;;;16.40;99.40;;;;;;5063129;28;20538;-62
2021/05/21 09:57:37;;;;;;;2.33;1.03;;;16.50;99.50;;;;;;5062350;28;21015;-63
2021/05/21 10:00:06;;;;;;;2.50;1.00;;;16.40;99.30;;;;;;5050386;28;20526;-63
2021/05/21 10:02:33;;;;;;;2.37;0.90;;;16.40;99.90;;;;;;5047455;28;20459;-63
2021/05/21 10:05:02;;;;;;;2.03;0.80;;;16.50;99.90;;;;;;5047193;28;20479;-63
2021/05/21 10:07:30;;;;;;;2.80;1.00;;;16.50;99.90;;;;;;5046694;28;20531;-63
2021/05/21 10:09:57;;;;;;;1.80;0.90;;;16.50;99.90;;;;;;5047364;28;20491;-63
2021/05/21 10:12:24;;;;;;;2.30;1.20;;;16.40;99.90;;;;;;5057019;28;20805;-63
2021/05/21 10:14:51;;;;;;;2.27;0.90;;;16.30;99.90;;;;;;5062473;28;20450;-63
2021/05/21 10:17:20;;;;;;;3.07;1.00;;;16.30;99.80;;;;;;5059462;28;20961;-64
2021/05/21 10:19:47;;;;;;;2.77;0.80;;;16.20;99.90;;;;;;5063049;28;20494;-63
2021/05/21 10:22:17;;;;;;;2.17;0.83;;;16.20;99.90;;;;;;5065281;28;20545;-63
2021/05/21 10:24:47;;;;;;;2.43;0.90;;;16.10;99.90;;;;;;5055489;28;20895;-63
2021/05/21 10:27:20;;;;;;;2.30;1.20;;;16.10;99.90;;;;;;5064030;28;20539;-63
2021/05/21 10:29:55;;;;;;;2.07;0.93;;;16.10;99.90;;;;;;5059614;28;20471;-62
2021/05/21 10:32:28;;;;;;;1.73;0.90;;;16.00;99.90;;;;;;5067732;28;20464;-62
2021/05/21 10:34:55;;;;;;;2.13;0.93;;;16.10;99.90;;;;;;5068473;28;20454;-61
2021/05/21 10:37:24;;;;;;;2.00;1.03;;;16.00;99.90;;;;;;5068122;28;20489;-63
2021/05/21 10:40:00;;;;;;;5.93;1.40;;;16.00;99.90;;;;;;5068325;28;20450;-64
2021/05/21 10:42:27;;;;;;;2.37;1.13;;;16.10;99.90;;;;;;5068485;28;20451;-63
2021/05/21 10:44:54;;;;;;;1.80;0.80;;;16.20;99.90;;;;;;5068341;28;20490;-63
2021/05/21 10:47:23;;;;;;;5.10;0.90;;;16.30;99.90;;;;;;5067220;28;20461;-63
2021/05/21 10:50:09;;;;;;;1.80;0.83;;;16.20;99.90;;;;;;5063129;28;20500;-62
2021/05/21 10:53:00;;;;;;;1.80;0.90;;;16.30;99.90;;;;;;5063944;28;20455;-63
2021/05/21 10:55:48;;;;;;;1.90;0.83;;;16.20;99.90;;;;;;5068770;28;20580;-62
2021/05/21 10:58:27;;;;;;;3.73;0.83;;;16.10;99.90;;;;;;5068494;28;20475;-63
2021/05/21 11:01:26;;;;;;;2.83;1.40;;;16.20;99.90;;;;;;5068825;28;20442;-63
2021/05/21 11:04:09;;;;;;;3.40;1.10;;;16.30;99.90;;;;;;5056890;28;20471;-63
2021/05/21 11:06:55;;;;;;;2.73;1.30;;;16.40;99.90;;;;;;5063835;28;20500;-63
2021/05/21 11:09:26;;;;;;;1.67;0.83;;;16.50;99.90;;;;;;5053270;28;20464;-63
2021/05/21 11:12:00;;;;;;;1.90;1.00;;;16.90;99.90;;;;;;5062868;28;20511;-61
2021/05/21 11:14:32;;;;;;;3.90;1.20;;;17.00;99.90;;;;;;5061422;28;20455;-62
2021/05/21 11:16:59;;;;;;;2.70;1.07;;;17.20;99.90;;;;;;5058671;28;20504;-63
2021/05/21 11:19:28;;;;;;;1.90;0.90;;;17.30;99.90;;;;;;5049421;28;20897;-62
2021/05/21 11:22:06;;;;;;;5.10;1.10;;;17.40;99.90;;;;;;5059455;28;20451;-60
2021/05/21 11:24:38;;;;;;;2.87;1.07;;;17.50;99.90;;;;;;5060338;28;20536;-62
2021/05/21 11:27:08;;;;;;;3.27;1.10;;;17.60;99.90;;;;;;5058313;28;20514;-62
2021/05/21 11:29:35;;;;;;;4.00;0.90;;;17.60;99.90;;;;;;5064222;28;20547;-63
2021/05/21 11:32:05;;;;;;;2.53;0.87;;;17.60;99.90;;;;;;5066845;28;20450;-61
2021/05/21 11:34:31;;;;;;;3.87;1.10;;;17.70;99.90;;;;;;5069037;28;20449;-62
2021/05/21 11:36:58;;;;;;;2.17;1.00;;;17.90;99.90;;;;;;5068742;28;20949;-62
2021/05/21 11:39:25;;;;;;;1.90;1.00;;;18.00;99.90;;;;;;5068564;28;20554;-63
2021/05/21 11:41:53;;;;;;;2.33;1.40;;;18.20;99.90;;;;;;5068896;28;20824;-62
2021/05/21 11:44:26;;;;;;;1.90;0.90;;;18.70;99.60;;;;;;5060768;28;20482;-63
2021/05/21 11:46:58;;;;;;;3.40;0.93;;;19.00;99.10;;;;;;5052424;28;20436;-64
2021/05/21 11:49:25;;;;;;;4.73;1.00;;;18.80;99.50;;;;;;5063840;28;20467;-63
2021/05/21 11:51:56;;;;;;;1.80;0.80;;;18.60;98.50;;;;;;5057353;28;20440;-63
2021/05/21 11:54:23;;;;;;;2.33;0.90;;;18.70;99.50;;;;;;5061119;28;20792;-64
2021/05/21 11:56:50;;;;;;;2.07;0.80;;;18.60;98.20;;;;;;5063341;28;20839;-62
2021/05/21 11:59:18;;;;;;;1.77;0.90;;;18.40;98.30;;;;;;5063509;28;20563;-63
2021/05/21 12:01:47;;;;;;;2.20;1.00;;;18.10;98.20;;;;;;5059180;28;20447;-63
2021/05/21 12:04:15;;;;;;;2.33;1.10;;;18.00;98.50;;;;;;5061800;28;20471;-64
2021/05/21 12:06:44;;;;;;;2.83;1.40;;;18.00;99.00;;;;;;5054155;28;20444;-64
2021/05/21 12:09:12;;;;;;;2.33;0.90;;;17.90;98.00;;;;;;5062728;28;20573;-61
2021/05/21 12:11:38;;;;;;;2.40;1.10;;;17.90;98.60;;;;;;5073808;28;20665;-62
2021/05/21 12:14:07;;;;;;;2.80;0.90;;;17.80;98.30;;;;;;5073405;28;20457;-62
2021/05/21 12:16:35;;;;;;;2.47;0.90;;;17.80;98.40;;;;;;5072406;28;21003;-64
2021/05/21 12:19:04;;;;;;;2.90;1.10;;;18.00;98.00;;;;;;5071933;28;20578;-64
2021/05/21 12:21:32;;;;;;;2.13;1.00;;;18.00;97.40;;;;;;5071786;28;20529;-64
2021/05/21 12:23:59;;;;;;;4.50;0.90;;;17.80;97.50;;;;;;5071001;28;20479;-62
2021/05/21 12:26:28;;;;;;;2.97;0.90;;;17.90;97.70;;;;;;5058308;28;20476;-64
2021/05/21 12:28:57;;;;;;;2.50;1.07;;;17.90;97.10;;;;;;5057264;28;20482;-62
2021/05/21 12:31:28;;;;;;;2.57;0.90;;;17.80;97.60;;;;;;5056347;28;20501;-66
2021/05/21 12:33:55;;;;;;;2.10;1.00;;;17.90;96.70;;;;;;5062903;28;20534;-64
2021/05/21 12:36:25;;;;;;;3.50;1.10;;;17.90;97.50;;;;;;5062817;28;20531;-64
2021/05/21 12:38:56;;;;;;;4.03;1.10;;;18.00;97.20;;;;;;5059824;28;20519;-62
2021/05/21 12:41:27;;;;;;;1.80;0.93;;;18.10;97.70;;;;;;5065477;28;20534;-63
2021/05/21 12:43:54;;;;;;;2.53;0.83;;;18.10;96.60;;;;;;5064608;28;20439;-63
2021/05/21 12:46:20;;;;;;;3.30;0.83;;;18.10;97.40;;;;;;5062161;28;20444;-63
2021/05/21 12:48:48;;;;;;;2.30;1.20;;;18.20;97.00;;;;;;5059610;28;20880;-67
2021/05/21 12:51:21;;;;;;;2.17;0.90;;;18.20;96.40;;;;;;5060794;28;20825;-66
2021/05/21 12:53:49;;;;;;;1.80;1.00;;;18.20;96.40;;;;;;5065419;28;20539;-67